createdAt,value
2023-02-06T00:01:12.277Z,84.07
2023-02-06T00:06:44.308Z,85.63
2023-02-06T00:09:27.397Z,84.50
2023-02-06T00:11:57.611Z,80.20
2023-02-06T00:14:33.822Z,97.65
2023-02-06T00:17:26.243Z,62.97
2023-02-06T00:19:56.553Z,56.67
2023-02-06T00:22:25.657Z,61.92
2023-02-06T00:24:59.858Z,64.35
2023-02-06T00:28:23.859Z,65.03
2023-02-06T00:30:56.978Z,112.50
2023-02-06T00:33:27.088Z,75.68
2023-02-06T00:36:17.112Z,72.65
2023-02-06T00:38:59.899Z,74.40
2023-02-06T00:41:44.893Z,69.75
2023-02-06T00:44:17.512Z,71.63
2023-02-06T00:47:06.616Z,76.60
2023-02-06T00:52:19.665Z,68.45
2023-02-06T00:55:11.337Z,66.18
2023-02-06T00:58:00.095Z,68.47
2023-02-06T01:00:30.195Z,65.93
2023-02-06T01:03:00.984Z,68.30
2023-02-06T01:06:08.749Z,61.22
2023-02-06T01:08:39.017Z,61.53
2023-02-06T01:11:12.731Z,60.78
2023-02-06T01:19:09.799Z,55.22
2023-02-06T01:21:46.716Z,55.28
2023-02-06T01:27:13.722Z,55.63
2023-02-06T01:29:51.322Z,56.97
2023-02-06T01:32:43.846Z,53.55
2023-02-06T01:35:26.363Z,53.55
2023-02-06T01:38:48.780Z,70.13
2023-02-06T01:41:20.255Z,71.95
2023-02-06T01:44:07.976Z,56.50
2023-02-06T01:46:43.468Z,57.50
2023-02-06T01:49:19.591Z,62.08
2023-02-06T01:51:57.027Z,66.32
2023-02-06T01:54:26.846Z,66.15
2023-02-06T01:57:04.425Z,66.30
2023-02-06T01:59:33.608Z,67.75
2023-02-06T02:02:04.294Z,73.15
2023-02-06T02:04:34.569Z,74.72
2023-02-06T02:07:23.749Z,72.65
2023-02-06T02:09:55.033Z,64.85
2023-02-06T02:12:25.557Z,61.92
2023-02-06T02:14:58.443Z,64.60
2023-02-06T02:17:53.372Z,63.47
2023-02-06T02:20:36.035Z,65.53
2023-02-06T02:23:30.524Z,67.70
2023-02-06T02:26:28.960Z,62.13
2023-02-06T02:31:42.906Z,59.55
2023-02-06T02:34:34.035Z,60.58
2023-02-06T02:37:08.879Z,58.08
2023-02-06T02:39:55.748Z,57.38
2023-02-06T02:42:42.288Z,57.67
2023-02-06T02:45:24.743Z,57.67
2023-02-06T02:48:13.316Z,59.47
2023-02-06T02:50:43.995Z,58.80
2023-02-06T02:53:15.071Z,60.33
2023-02-06T02:55:44.865Z,59.70
2023-02-06T02:58:23.592Z,58.95
2023-02-06T03:01:01.576Z,57.15
2023-02-06T03:03:34.668Z,54.22
2023-02-06T03:06:33.934Z,54.15
2023-02-06T03:09:16.832Z,54.88
2023-02-06T03:12:05.991Z,58.75
2023-02-06T03:14:46.719Z,63.05
2023-02-06T03:17:49.437Z,76.55
2023-02-06T03:20:38.595Z,76.53
2023-02-06T03:23:07.844Z,63.88
2023-02-06T03:25:42.915Z,61.40
2023-02-06T03:28:24.029Z,57.95
2023-02-06T03:31:00.762Z,57.10
2023-02-06T03:33:37.676Z,55.72
2023-02-06T03:36:08.565Z,57.58
2023-02-06T03:38:38.207Z,57.15
2023-02-06T03:41:09.718Z,56.97
2023-02-06T03:43:43.066Z,59.20
2023-02-06T03:46:15.834Z,58.58
2023-02-06T03:48:48.588Z,60.05
2023-02-06T03:51:32.063Z,58.55
2023-02-06T03:54:04.262Z,54.78
2023-02-06T03:56:40.409Z,51.47
2023-02-06T03:59:23.360Z,52.30
2023-02-06T04:02:03.153Z,50.75
2023-02-06T04:04:37.697Z,48.70
2023-02-06T04:07:27.757Z,51.75
2023-02-06T04:10:04.105Z,53.88
2023-02-06T04:12:35.496Z,53.80
2023-02-06T04:15:07.096Z,57.20
2023-02-06T04:17:53.642Z,55.00
2023-02-06T04:20:28.546Z,52.00
2023-02-06T04:22:57.307Z,51.33
2023-02-06T04:25:26.907Z,97.22
2023-02-06T04:27:55.642Z,56.25
2023-02-06T04:30:31.490Z,49.00
2023-02-06T04:33:02.438Z,49.88
2023-02-06T04:35:33.352Z,49.30
2023-02-06T04:38:02.211Z,50.35
2023-02-06T04:40:32.617Z,51.30
2023-02-06T04:43:01.739Z,48.05
2023-02-06T04:45:32.960Z,47.38
2023-02-06T04:48:04.167Z,48.15
2023-02-06T04:50:35.666Z,49.22
2023-02-06T04:53:05.217Z,50.38
2023-02-06T04:55:36.208Z,51.42
2023-02-06T04:58:14.902Z,51.28
2023-02-06T05:00:43.764Z,49.88
2023-02-06T05:03:13.168Z,48.00
2023-02-06T05:05:42.080Z,51.78
2023-02-06T05:08:11.068Z,54.53
2023-02-06T05:10:42.890Z,51.53
2023-02-06T05:13:13.957Z,51.42
2023-02-06T05:15:42.843Z,51.63
2023-02-06T05:18:13.059Z,59.80
2023-02-06T05:20:44.034Z,53.72
2023-02-06T05:23:12.950Z,54.28
2023-02-06T05:25:42.661Z,58.65
2023-02-06T05:28:13.237Z,75.13
2023-02-06T05:30:42.941Z,65.78
2023-02-06T05:33:12.587Z,57.33
2023-02-06T05:35:43.447Z,57.97
2023-02-06T05:38:13.155Z,55.10
2023-02-06T05:40:43.751Z,55.78
2023-02-06T05:43:12.790Z,55.92
2023-02-06T05:45:42.111Z,54.42
2023-02-06T05:48:13.249Z,54.22
2023-02-06T05:50:43.501Z,56.00
2023-02-06T05:53:17.043Z,52.58
2023-02-06T05:55:47.673Z,53.10
2023-02-06T05:58:16.560Z,54.90
2023-02-06T06:00:45.902Z,56.38
2023-02-06T06:03:18.040Z,54.75
2023-02-06T06:05:48.883Z,66.00
2023-02-06T06:08:17.262Z,55.47
2023-02-06T06:10:55.062Z,52.08
2023-02-06T06:18:48.200Z,57.17
2023-02-06T06:39:08.502Z,57.60
2023-02-06T06:41:41.793Z,71.38
2023-02-06T06:44:10.895Z,74.25
2023-02-06T06:47:44.306Z,68.40
2023-02-06T06:50:12.438Z,65.32
2023-02-06T06:58:37.485Z,69.85
2023-02-06T07:01:51.184Z,75.03
2023-02-06T07:04:38.432Z,84.15
2023-02-06T07:07:16.567Z,86.85
2023-02-06T07:09:50.154Z,112.30
2023-02-06T07:12:19.507Z,87.43
2023-02-06T07:14:47.796Z,64.80
2023-02-06T07:17:18.977Z,58.85
2023-02-06T07:19:51.559Z,57.17
2023-02-06T07:22:25.099Z,60.17
2023-02-06T07:24:54.582Z,57.83
2023-02-06T07:27:24.104Z,60.72
2023-02-06T07:29:55.051Z,67.20
2023-02-06T07:32:45.403Z,144.57
2023-02-06T07:35:20.869Z,131.52
2023-02-06T07:38:03.600Z,101.28
2023-02-06T07:40:45.073Z,91.78
2023-02-06T07:43:35.096Z,77.40
2023-02-06T07:46:12.029Z,71.60
2023-02-06T07:48:44.390Z,73.85
2023-02-06T07:51:24.143Z,59.42
2023-02-06T07:54:03.924Z,50.13
2023-02-06T07:56:34.839Z,51.95
2023-02-06T07:59:06.598Z,53.13
2023-02-06T08:01:36.548Z,56.47
2023-02-06T08:04:14.193Z,55.25
2023-02-06T08:06:50.619Z,48.45
2023-02-06T08:09:21.786Z,52.25
2023-02-06T08:12:00.337Z,49.40
2023-02-06T08:17:17.516Z,45.53
2023-02-06T08:19:55.621Z,63.15
2023-02-06T08:22:24.158Z,78.80
2023-02-06T08:24:55.320Z,88.25
2023-02-06T08:27:30.144Z,112.70
2023-02-06T08:30:14.081Z,59.75
2023-02-06T08:32:44.684Z,45.83
2023-02-06T08:35:29.585Z,103.70
2023-02-06T08:37:59.035Z,72.78
2023-02-06T08:40:40.428Z,58.38
2023-02-06T08:43:08.770Z,48.70
2023-02-06T08:45:43.068Z,48.92
2023-02-06T08:48:20.229Z,51.75
2023-02-06T08:50:52.689Z,49.13
2023-02-06T08:56:36.388Z,41.53
2023-02-06T08:59:13.204Z,47.70
2023-02-06T09:01:45.732Z,71.85
2023-02-06T09:07:03.077Z,44.38
2023-02-06T09:09:42.425Z,47.95
2023-02-06T09:16:03.392Z,45.13
2023-02-06T09:21:26.932Z,43.05
2023-02-06T09:24:00.686Z,46.45
2023-02-06T09:26:44.782Z,46.30
2023-02-06T09:29:29.730Z,49.17
2023-02-06T09:32:08.413Z,52.88
2023-02-06T09:34:39.103Z,50.40
2023-02-06T09:37:09.851Z,42.58
2023-02-06T09:39:39.798Z,50.55
2023-02-06T09:42:47.498Z,43.35
2023-02-06T09:45:25.715Z,44.47
2023-02-06T09:47:59.466Z,48.20
2023-02-06T09:50:42.216Z,46.78
2023-02-06T09:53:40.817Z,53.03
2023-02-06T09:56:38.905Z,40.20
2023-02-06T09:59:52.837Z,31.88
2023-02-06T10:02:50.338Z,33.65
2023-02-06T10:05:23.936Z,33.78
2023-02-06T10:08:12.417Z,35.85
2023-02-06T10:10:53.893Z,31.83
2023-02-06T10:13:50.318Z,28.67
2023-02-06T10:16:46.499Z,28.55
2023-02-06T10:19:22.798Z,31.35
2023-02-06T10:22:01.621Z,32.95
2023-02-06T10:24:51.698Z,35.03
2023-02-06T10:27:36.130Z,33.15
2023-02-06T10:30:05.859Z,32.95
2023-02-06T10:33:09.734Z,32.58
2023-02-06T10:36:17.584Z,33.95
2023-02-06T10:39:23.399Z,34.35
2023-02-06T10:42:22.809Z,33.63
2023-02-06T10:45:18.471Z,37.17
2023-02-06T10:48:14.301Z,35.65
2023-02-06T10:51:14.421Z,35.90
2023-02-06T10:54:07.834Z,41.60
2023-02-06T10:56:44.663Z,39.00
2023-02-06T10:59:33.378Z,39.72
2023-02-06T11:02:38.336Z,37.33
2023-02-06T11:05:48.530Z,39.80
2023-02-06T11:08:47.915Z,37.85
2023-02-06T11:11:46.713Z,39.38
2023-02-06T11:14:36.518Z,39.40
2023-02-06T11:17:08.121Z,39.58
2023-02-06T11:19:45.831Z,38.17
2023-02-06T11:22:18.043Z,39.67
2023-02-06T11:25:14.242Z,39.13
2023-02-06T11:27:45.425Z,35.92
2023-02-06T11:30:35.839Z,34.42
2023-02-06T11:33:32.194Z,36.40
2023-02-06T11:36:08.769Z,36.30
2023-02-06T11:38:40.806Z,38.80
2023-02-06T11:41:18.968Z,38.30
2023-02-06T11:44:01.599Z,37.30
2023-02-06T11:46:46.495Z,38.58
2023-02-06T11:49:34.525Z,38.72
2023-02-06T11:52:05.131Z,31.30
2023-02-06T11:54:35.545Z,31.00
2023-02-06T11:57:28.975Z,30.00
2023-02-06T12:00:19.829Z,31.17
2023-02-06T12:03:49.022Z,33.00
2023-02-06T12:06:27.106Z,31.92
2023-02-06T12:09:13.158Z,32.20
2023-02-06T12:12:28.674Z,31.98
2023-02-06T12:15:36.198Z,34.20
2023-02-06T12:18:06.255Z,31.25
2023-02-06T12:20:45.807Z,34.42
2023-02-06T12:23:36.640Z,32.78
2023-02-06T12:26:10.960Z,33.20
2023-02-06T12:28:53.304Z,33.10
2023-02-06T12:31:29.792Z,33.90
2023-02-06T12:37:46.934Z,34.63
2023-02-06T12:47:30.988Z,50.78
2023-02-06T12:50:16.004Z,40.53
2023-02-06T14:48:48.733Z,25.75
2023-02-06T14:51:34.974Z,25.83
2023-02-06T15:38:03.454Z,276.52
2023-02-06T15:41:12.305Z,117.22
2023-02-06T15:44:50.745Z,133.48
2023-02-06T16:04:12.965Z,57.17
2023-02-06T16:07:29.210Z,33.95
2023-02-06T16:26:34.135Z,85.20
2023-02-06T16:50:51.849Z,79.88
2023-02-06T16:53:26.222Z,102.32
2023-02-06T16:55:59.424Z,122.70
2023-02-06T16:58:35.175Z,200.55
2023-02-06T17:01:04.322Z,236.40
2023-02-06T17:03:32.871Z,168.43
2023-02-06T17:06:01.746Z,59.80
2023-02-06T17:08:39.644Z,69.82
2023-02-06T17:11:11.240Z,64.32
2023-02-06T17:13:44.059Z,66.70
2023-02-06T17:16:24.660Z,45.83
2023-02-06T17:18:53.425Z,45.10
2023-02-06T17:21:25.270Z,38.67
2023-02-06T17:23:55.739Z,41.00
2023-02-06T17:26:24.929Z,36.42
2023-02-06T17:28:54.119Z,36.40
2023-02-06T17:31:22.816Z,37.25
2023-02-06T17:51:27.534Z,40.17
2023-02-06T18:00:28.142Z,51.58
2023-02-06T18:37:55.859Z,109.72
2023-02-06T18:40:35.480Z,132.10
2023-02-06T18:43:06.555Z,116.38
2023-02-06T18:45:38.208Z,258.08
2023-02-06T18:48:29.824Z,240.75
2023-02-06T18:51:12.342Z,163.77
2023-02-06T18:53:43.723Z,212.10
2023-02-06T18:56:19.080Z,181.05
2023-02-06T18:58:58.550Z,129.30
2023-02-06T19:01:30.258Z,113.72
2023-02-06T19:04:00.141Z,92.07
2023-02-06T19:06:35.499Z,92.57
2023-02-06T19:09:07.284Z,88.50
2023-02-06T19:11:37.779Z,76.95
2023-02-06T19:14:23.882Z,65.60
2023-02-06T19:20:34.333Z,95.32
2023-02-06T20:43:54.845Z,54.63
2023-02-06T20:47:03.656Z,72.82
2023-02-06T20:57:35.341Z,65.70
2023-02-06T21:00:54.526Z,56.47
2023-02-06T21:03:35.740Z,48.70
